createdAt,value
2023-01-27T00:00:37.344Z,7.63
2023-01-27T00:03:04.164Z,7.67
2023-01-27T00:05:30.961Z,7.27
2023-01-27T00:07:58.744Z,7.37
2023-01-27T00:10:26.463Z,7.93
2023-01-27T00:13:12.401Z,7.47
2023-01-27T00:15:39.889Z,7.33
2023-01-27T00:18:08.264Z,7.40
2023-01-27T00:20:53.900Z,7.00
2023-01-27T00:23:41.909Z,6.80
2023-01-27T00:26:11.746Z,7.13
2023-01-27T00:28:41.860Z,7.23
2023-01-27T00:31:29.111Z,7.13
2023-01-27T00:34:01.833Z,7.33
2023-01-27T00:36:30.971Z,6.73
2023-01-27T00:38:57.739Z,7.07
2023-01-27T00:41:24.588Z,7.77
2023-01-27T00:43:53.455Z,7.47
2023-01-27T00:46:22.308Z,7.67
2023-01-27T00:48:50.092Z,7.47
2023-01-27T00:51:17.511Z,8.40
2023-01-27T00:53:45.010Z,7.30
2023-01-27T00:56:11.947Z,7.73
2023-01-27T00:58:39.018Z,7.57
2023-01-27T01:01:13.652Z,7.60
2023-01-27T01:03:40.964Z,7.53
2023-01-27T01:06:10.780Z,7.53
2023-01-27T01:08:38.612Z,7.87
2023-01-27T01:11:07.286Z,7.50
2023-01-27T01:13:34.787Z,7.83
2023-01-27T01:16:13.514Z,7.23
2023-01-27T01:18:41.784Z,7.23
2023-01-27T01:21:08.985Z,7.40
2023-01-27T01:23:40.808Z,7.10
2023-01-27T01:26:10.829Z,7.47
2023-01-27T01:28:38.664Z,8.00
2023-01-27T01:31:12.094Z,7.83
2023-01-27T01:33:39.395Z,8.53
2023-01-27T01:36:15.276Z,9.00
2023-01-27T01:38:42.591Z,8.83
2023-01-27T01:41:14.326Z,8.43
2023-01-27T01:43:41.135Z,9.17
2023-01-27T01:46:10.701Z,8.60
2023-01-27T01:48:46.929Z,8.80
2023-01-27T01:51:28.623Z,8.77
2023-01-27T01:54:16.441Z,8.73
2023-01-27T01:56:52.163Z,8.80
2023-01-27T01:59:24.652Z,8.67
2023-01-27T02:01:57.016Z,8.13
2023-01-27T02:04:31.773Z,8.63
2023-01-27T02:07:26.657Z,8.30
2023-01-27T02:09:56.298Z,7.77
2023-01-27T02:12:23.337Z,8.77
2023-01-27T02:14:50.281Z,8.40
2023-01-27T02:17:18.087Z,8.10
2023-01-27T02:19:57.812Z,8.60
2023-01-27T02:22:33.677Z,8.20
2023-01-27T02:25:32.416Z,7.80
2023-01-27T02:27:59.211Z,7.87
2023-01-27T02:30:27.376Z,8.27
2023-01-27T02:32:54.181Z,7.97
2023-01-27T02:35:36.260Z,8.40
2023-01-27T02:38:06.159Z,7.97
2023-01-27T02:40:34.340Z,8.23
2023-01-27T02:43:03.078Z,8.33
2023-01-27T02:45:29.805Z,7.77
2023-01-27T02:47:56.571Z,7.90
2023-01-27T02:50:23.933Z,7.97
2023-01-27T02:52:51.072Z,8.00
2023-01-27T02:55:17.832Z,7.50
2023-01-27T02:57:44.645Z,8.60
2023-01-27T03:00:30.760Z,7.97
2023-01-27T03:02:57.900Z,8.73
2023-01-27T03:05:24.726Z,7.67
2023-01-27T03:07:51.446Z,8.33
2023-01-27T03:10:19.662Z,8.63
2023-01-27T03:12:46.376Z,8.77
2023-01-27T03:15:32.051Z,7.93
2023-01-27T03:18:09.766Z,8.47
2023-01-27T03:20:36.541Z,9.17
2023-01-27T03:23:04.014Z,8.27
2023-01-27T03:25:31.116Z,8.60
2023-01-27T03:27:58.078Z,8.10
2023-01-27T03:30:41.649Z,8.37
2023-01-27T03:33:15.020Z,8.53
2023-01-27T03:36:14.710Z,9.20
2023-01-27T03:39:08.832Z,9.27
2023-01-27T03:41:53.941Z,9.37
2023-01-27T03:44:41.153Z,9.60
2023-01-27T03:47:07.909Z,8.90
2023-01-27T03:49:34.662Z,9.20
2023-01-27T03:52:01.530Z,9.27
2023-01-27T03:54:28.329Z,9.17
2023-01-27T03:56:55.043Z,9.73
2023-01-27T03:59:22.346Z,8.63
2023-01-27T04:01:49.137Z,9.50
2023-01-27T04:04:34.349Z,9.73
2023-01-27T04:07:02.829Z,9.70
2023-01-27T04:09:34.040Z,9.33
2023-01-27T04:12:05.984Z,8.77
2023-01-27T04:14:43.083Z,9.37
2023-01-27T04:17:12.504Z,9.50
2023-01-27T04:19:39.679Z,9.50
2023-01-27T04:22:07.425Z,9.87
2023-01-27T04:24:34.236Z,10.37
2023-01-27T04:27:04.753Z,10.43
2023-01-27T04:29:36.659Z,9.97
2023-01-27T04:32:05.992Z,9.87
2023-01-27T04:34:33.036Z,9.77
2023-01-27T04:37:00.102Z,10.30
2023-01-27T04:39:27.026Z,10.47
2023-01-27T04:41:53.777Z,10.47
2023-01-27T04:44:20.547Z,9.77
2023-01-27T04:46:47.634Z,10.27
2023-01-27T04:49:14.396Z,10.03
2023-01-27T04:51:41.364Z,9.73
2023-01-27T04:54:08.663Z,10.47
2023-01-27T04:56:41.187Z,9.37
2023-01-27T04:59:12.564Z,10.03
2023-01-27T05:01:39.452Z,9.90
2023-01-27T05:04:06.224Z,10.17
2023-01-27T05:06:33.278Z,10.17
2023-01-27T05:09:01.326Z,10.47
2023-01-27T05:11:28.137Z,10.20
2023-01-27T05:13:54.933Z,10.67
2023-01-27T05:16:23.949Z,10.13
2023-01-27T05:18:52.623Z,10.17
2023-01-27T05:21:25.175Z,10.47
2023-01-27T05:23:52.137Z,10.23
2023-01-27T05:26:24.852Z,11.53
2023-01-27T05:28:53.334Z,13.37
2023-01-27T05:31:23.063Z,11.87
2023-01-27T05:33:53.014Z,12.80
2023-01-27T05:36:23.059Z,17.57
2023-01-27T05:38:50.108Z,18.80
2023-01-27T05:41:18.984Z,18.80
2023-01-27T05:43:47.485Z,22.00
2023-01-27T05:46:17.279Z,20.90
2023-01-27T05:48:46.404Z,19.93
2023-01-27T05:51:15.239Z,18.23
2023-01-27T05:53:43.263Z,16.07
2023-01-27T05:56:11.962Z,14.13
2023-01-27T05:58:39.900Z,14.90
2023-01-27T06:01:11.048Z,13.90
2023-01-27T06:03:38.679Z,12.17
2023-01-27T06:06:06.868Z,10.97
2023-01-27T06:08:34.238Z,10.97
2023-01-27T06:11:01.251Z,11.00
2023-01-27T06:13:29.080Z,10.83
2023-01-27T06:15:56.165Z,11.43
2023-01-27T06:18:23.557Z,12.13
2023-01-27T06:20:50.384Z,15.17
2023-01-27T06:23:18.035Z,14.60
2023-01-27T06:25:47.455Z,24.30
2023-01-27T06:28:28.268Z,21.47
2023-01-27T06:30:56.753Z,15.53
2023-01-27T06:33:23.768Z,13.30
2023-01-27T06:35:50.529Z,12.40
2023-01-27T06:38:17.347Z,12.07
2023-01-27T06:40:44.292Z,12.30
2023-01-27T06:43:14.554Z,13.80
2023-01-27T06:45:41.497Z,14.43
2023-01-27T06:48:09.035Z,13.93
2023-01-27T06:50:36.816Z,13.17
2023-01-27T06:53:06.202Z,12.73
2023-01-27T06:55:34.023Z,11.60
2023-01-27T06:58:03.812Z,11.23
2023-01-27T07:00:30.731Z,12.63
2023-01-27T07:02:57.868Z,12.60
2023-01-27T07:05:25.378Z,12.50
2023-01-27T07:07:52.137Z,12.70
2023-01-27T07:10:19.185Z,11.57
2023-01-27T07:12:46.005Z,13.23
2023-01-27T07:15:13.459Z,13.17
2023-01-27T07:17:40.539Z,13.00
2023-01-27T07:20:09.799Z,12.57
2023-01-27T07:22:36.775Z,12.73
2023-01-27T07:25:04.873Z,13.53
2023-01-27T07:27:31.646Z,12.67
2023-01-27T07:29:58.414Z,12.97
2023-01-27T07:32:28.044Z,12.27
2023-01-27T07:34:55.275Z,12.13
2023-01-27T07:37:22.385Z,12.13
2023-01-27T07:39:49.085Z,11.60
2023-01-27T07:42:15.860Z,12.50
2023-01-27T07:44:42.572Z,14.00
2023-01-27T07:47:09.290Z,15.73
2023-01-27T07:49:36.104Z,14.27
2023-01-27T07:52:02.891Z,13.37
2023-01-27T07:54:29.678Z,12.47
2023-01-27T07:56:58.858Z,12.93
2023-01-27T07:59:25.638Z,12.37
2023-01-27T08:01:52.365Z,13.43
2023-01-27T08:04:19.229Z,11.97
2023-01-27T08:06:46.081Z,12.07
2023-01-27T08:09:12.973Z,11.10
2023-01-27T08:11:39.717Z,11.70
2023-01-27T08:14:06.438Z,10.70
2023-01-27T08:16:33.150Z,10.70
2023-01-27T08:18:59.917Z,12.00
2023-01-27T08:21:32.472Z,11.53
2023-01-27T08:24:00.449Z,12.73
2023-01-27T08:26:27.625Z,11.90
2023-01-27T08:28:54.436Z,11.83
2023-01-27T08:31:21.281Z,12.10
2023-01-27T08:33:52.851Z,11.47
2023-01-27T08:36:21.376Z,12.03
2023-01-27T08:38:52.061Z,12.73
2023-01-27T08:41:21.806Z,11.30
2023-01-27T08:43:49.072Z,12.17
2023-01-27T08:46:16.906Z,12.03
2023-01-27T08:48:44.192Z,12.27
2023-01-27T08:51:14.331Z,10.90
2023-01-27T08:53:41.404Z,11.23
2023-01-27T08:56:12.535Z,10.40
2023-01-27T08:58:39.363Z,10.40
2023-01-27T09:01:07.281Z,9.93
2023-01-27T09:03:35.112Z,11.07
2023-01-27T09:06:02.100Z,11.40
2023-01-27T09:08:29.345Z,11.13
2023-01-27T09:10:57.638Z,10.57
2023-01-27T09:13:24.590Z,10.80
2023-01-27T09:15:52.538Z,10.37
2023-01-27T09:18:19.750Z,11.00
2023-01-27T09:20:46.859Z,9.67
2023-01-27T09:23:13.680Z,9.73
2023-01-27T09:25:40.574Z,9.57
2023-01-27T09:28:12.213Z,9.70
2023-01-27T09:30:40.997Z,9.80
2023-01-27T09:33:09.040Z,8.83
2023-01-27T09:35:41.746Z,9.27
2023-01-27T09:38:09.855Z,8.97
2023-01-27T09:40:56.898Z,9.87
2023-01-27T09:44:01.250Z,8.50
2023-01-27T09:47:06.337Z,9.27
2023-01-27T09:50:00.530Z,8.83
2023-01-27T09:52:51.995Z,9.03
2023-01-27T09:55:54.939Z,8.63
2023-01-27T09:58:56.704Z,9.23
2023-01-27T10:01:43.220Z,8.80
2023-01-27T10:04:27.161Z,8.70
2023-01-27T10:07:21.168Z,10.17
2023-01-27T10:09:53.845Z,9.37
2023-01-27T10:12:58.354Z,8.87
2023-01-27T10:15:58.260Z,10.03
2023-01-27T10:18:28.052Z,9.33
2023-01-27T10:21:19.327Z,9.83
2023-01-27T10:24:30.942Z,9.63
2023-01-27T10:27:13.057Z,9.43
2023-01-27T10:30:07.315Z,9.60
2023-01-27T10:32:44.099Z,9.93
2023-01-27T10:35:20.886Z,10.20
2023-01-27T10:37:55.167Z,10.23
2023-01-27T10:40:34.056Z,10.07
2023-01-27T10:43:20.209Z,10.00
2023-01-27T10:45:57.034Z,10.13
2023-01-27T10:48:28.478Z,10.73
2023-01-27T10:51:04.257Z,11.77
2023-01-27T10:54:06.505Z,11.07
2023-01-27T10:56:44.899Z,9.47
2023-01-27T10:59:20.011Z,11.17
2023-01-27T11:02:00.312Z,10.63
2023-01-27T11:04:49.354Z,11.60
2023-01-27T11:07:21.438Z,11.13
2023-01-27T11:10:02.192Z,10.50
2023-01-27T11:12:31.555Z,11.17
2023-01-27T11:15:00.349Z,10.60
2023-01-27T11:17:34.570Z,10.77
2023-01-27T11:20:39.157Z,10.70
2023-01-27T11:23:17.238Z,11.20
2023-01-27T11:26:04.616Z,10.97
2023-01-27T11:28:56.904Z,10.83
2023-01-27T11:31:40.636Z,10.60
2023-01-27T11:34:17.205Z,10.43
2023-01-27T11:36:43.951Z,10.73
2023-01-27T11:39:12.127Z,11.13
2023-01-27T11:41:43.415Z,11.03
2023-01-27T11:44:19.662Z,11.40
2023-01-27T11:46:48.124Z,10.87
2023-01-27T11:49:43.541Z,10.93
2023-01-27T11:52:19.902Z,11.83
2023-01-27T11:54:56.171Z,13.50
2023-01-27T11:57:25.463Z,12.27
2023-01-27T12:00:01.332Z,12.33
2023-01-27T12:02:32.100Z,13.83
2023-01-27T12:05:05.041Z,13.23
2023-01-27T12:07:38.920Z,12.50
2023-01-27T12:10:33.513Z,12.83
2023-01-27T12:13:19.596Z,12.93
2023-01-27T12:16:04.865Z,12.27
2023-01-27T12:18:35.831Z,13.13
2023-01-27T12:21:05.486Z,13.00
2023-01-27T12:23:46.964Z,13.77
2023-01-27T12:26:13.776Z,13.27
2023-01-27T12:28:51.957Z,13.80
2023-01-27T12:31:28.733Z,13.37
2023-01-27T12:34:13.351Z,13.60
2023-01-27T12:36:42.349Z,12.77
2023-01-27T12:39:41.635Z,13.47
2023-01-27T12:42:38.099Z,12.87
2023-01-27T12:45:31.131Z,14.33
2023-01-27T12:48:10.499Z,13.23
2023-01-27T12:50:40.189Z,14.20
2023-01-27T12:53:14.315Z,13.20
2023-01-27T12:55:49.430Z,13.57
2023-01-27T12:58:33.463Z,13.03
2023-01-27T13:01:03.483Z,13.60
2023-01-27T13:03:30.920Z,13.37
2023-01-27T13:05:59.845Z,12.00
2023-01-27T13:08:28.596Z,11.93
2023-01-27T13:10:59.200Z,13.73
2023-01-27T13:13:30.592Z,13.10
2023-01-27T13:16:14.822Z,12.97
2023-01-27T13:18:42.464Z,11.93
2023-01-27T13:21:16.656Z,11.63
2023-01-27T13:23:45.999Z,12.10
2023-01-27T13:26:21.143Z,11.73
2023-01-27T13:29:09.790Z,11.93
2023-01-27T13:32:03.525Z,11.70
2023-01-27T13:34:49.173Z,12.13
2023-01-27T13:37:37.256Z,11.70
2023-01-27T13:40:07.220Z,12.13
2023-01-27T13:43:08.304Z,12.63
2023-01-27T13:45:54.345Z,11.73
2023-01-27T13:48:32.795Z,12.27
2023-01-27T13:51:03.714Z,12.40
2023-01-27T13:53:30.503Z,12.03
2023-01-27T13:56:17.801Z,12.57
2023-01-27T13:59:19.929Z,12.30
2023-01-27T14:02:08.318Z,12.20
2023-01-27T14:04:53.325Z,13.37
2023-01-27T14:07:40.288Z,12.40
2023-01-27T14:10:19.454Z,13.00
2023-01-27T14:13:12.305Z,12.03
2023-01-27T14:15:56.756Z,13.20
2023-01-27T14:18:23.492Z,11.63
2023-01-27T14:21:25.032Z,12.10
2023-01-27T14:24:20.569Z,12.23
2023-01-27T14:27:00.965Z,12.23
2023-01-27T14:29:58.982Z,11.57
2023-01-27T14:32:55.370Z,12.27
2023-01-27T14:35:39.367Z,12.53
2023-01-27T14:38:38.996Z,12.63
2023-01-27T14:41:20.916Z,12.50
2023-01-27T14:43:59.536Z,13.17
2023-01-27T14:46:50.125Z,14.50
2023-01-27T14:49:32.133Z,13.97
2023-01-27T14:52:44.334Z,15.97
2023-01-27T14:55:37.068Z,16.70
2023-01-27T14:58:30.743Z,14.93
2023-01-27T15:01:22.360Z,13.93
2023-01-27T15:04:03.094Z,14.00
2023-01-27T15:06:51.170Z,14.30
2023-01-27T15:09:42.171Z,12.60
2023-01-27T15:12:48.579Z,13.90
2023-01-27T15:15:23.359Z,13.40
2023-01-27T15:18:09.168Z,13.67
2023-01-27T15:20:58.061Z,14.40
2023-01-27T15:23:48.719Z,15.67
2023-01-27T15:26:18.882Z,13.73
2023-01-27T15:28:45.969Z,13.90
2023-01-27T15:31:16.708Z,15.63
2023-01-27T15:33:52.474Z,14.93
2023-01-27T15:36:28.325Z,16.30
2023-01-27T15:39:10.132Z,15.27
2023-01-27T15:41:50.205Z,15.00
2023-01-27T15:44:19.415Z,16.03
2023-01-27T15:46:51.607Z,15.43
2023-01-27T15:49:24.781Z,15.50
2023-01-27T15:51:54.167Z,13.67
2023-01-27T15:54:31.630Z,12.43
2023-01-27T15:57:04.558Z,12.70
2023-01-27T15:59:58.489Z,12.10
2023-01-27T16:02:29.756Z,13.33
2023-01-27T16:05:19.819Z,12.83
2023-01-27T16:07:55.169Z,12.50
2023-01-27T16:10:24.449Z,11.67
2023-01-27T16:13:30.139Z,11.43
2023-01-27T16:16:18.774Z,11.97
2023-01-27T16:19:11.148Z,11.53
2023-01-27T16:21:53.093Z,11.07
2023-01-27T16:24:29.957Z,10.63
2023-01-27T16:27:18.493Z,11.67
2023-01-27T16:29:57.449Z,10.43
2023-01-27T16:32:30.833Z,9.97
2023-01-27T16:35:04.415Z,10.73
2023-01-27T16:37:35.092Z,10.13
2023-01-27T16:40:24.034Z,10.50
2023-01-27T16:42:53.856Z,10.50
2023-01-27T16:45:29.724Z,10.60
2023-01-27T16:48:04.181Z,10.23
2023-01-27T16:50:32.015Z,10.63
2023-01-27T16:52:58.989Z,10.00
2023-01-27T16:55:26.099Z,10.07
2023-01-27T16:57:54.409Z,9.97
2023-01-27T17:00:28.538Z,10.67
2023-01-27T17:02:57.569Z,10.50
2023-01-27T17:05:24.404Z,9.47
2023-01-27T17:08:23.073Z,10.40
2023-01-27T17:11:05.045Z,10.47
2023-01-27T17:13:35.138Z,10.10
2023-01-27T17:16:06.040Z,10.40
2023-01-27T17:18:50.830Z,10.93
2023-01-27T17:21:35.963Z,10.73
2023-01-27T17:24:25.101Z,9.53
2023-01-27T17:27:14.858Z,10.20
2023-01-27T17:29:44.059Z,10.13
2023-01-27T17:32:27.498Z,9.63
2023-01-27T17:34:57.145Z,10.77
2023-01-27T17:37:24.811Z,10.27
2023-01-27T17:39:57.310Z,10.60
2023-01-27T17:42:32.337Z,10.60
2023-01-27T17:45:37.956Z,9.83
2023-01-27T17:48:04.786Z,9.87
2023-01-27T17:50:37.734Z,10.23
2023-01-27T17:53:10.374Z,10.37
2023-01-27T17:55:38.074Z,10.53
2023-01-27T17:58:10.547Z,14.73
2023-01-27T18:00:40.191Z,15.23
2023-01-27T18:03:15.813Z,13.70
2023-01-27T18:05:45.151Z,13.47
2023-01-27T18:08:11.926Z,12.80
2023-01-27T18:10:43.966Z,12.23
2023-01-27T18:13:19.644Z,11.73
2023-01-27T18:15:50.404Z,11.43
2023-01-27T18:18:28.989Z,11.53
2023-01-27T18:21:25.394Z,11.23
2023-01-27T18:23:57.214Z,10.60
2023-01-27T18:26:33.705Z,11.23
2023-01-27T18:29:19.879Z,10.63
2023-01-27T18:32:13.585Z,11.33
2023-01-27T18:34:55.403Z,14.20
2023-01-27T18:37:29.546Z,12.80
2023-01-27T18:39:59.111Z,13.00
2023-01-27T18:42:28.485Z,11.00
2023-01-27T18:44:56.370Z,11.60
2023-01-27T18:47:28.813Z,10.83
2023-01-27T18:50:07.184Z,10.37
2023-01-27T18:52:33.977Z,9.97
2023-01-27T18:55:27.540Z,10.07
2023-01-27T18:57:59.852Z,10.20
2023-01-27T19:00:37.345Z,10.07
2023-01-27T19:03:15.713Z,10.07
2023-01-27T19:05:42.492Z,10.13
2023-01-27T19:08:14.787Z,11.70
2023-01-27T19:10:41.808Z,11.23
2023-01-27T19:13:10.217Z,11.23
2023-01-27T19:15:53.644Z,11.60
2023-01-27T19:18:27.825Z,11.33
2023-01-27T19:20:54.575Z,11.90
2023-01-27T19:23:21.893Z,12.13
2023-01-27T19:25:53.165Z,11.50
2023-01-27T19:28:35.699Z,11.17
2023-01-27T19:31:04.087Z,11.20
2023-01-27T19:33:34.713Z,12.07
2023-01-27T19:36:23.819Z,11.93
2023-01-27T19:39:06.506Z,11.57
2023-01-27T19:41:33.873Z,11.20
2023-01-27T19:44:00.759Z,11.43
2023-01-27T19:46:27.586Z,12.60
2023-01-27T19:48:54.312Z,11.37
2023-01-27T19:51:21.427Z,11.57
2023-01-27T19:53:48.170Z,12.00
2023-01-27T19:56:17.290Z,12.87
2023-01-27T19:58:52.824Z,11.57
2023-01-27T20:01:21.833Z,12.50
2023-01-27T20:03:49.487Z,11.97
2023-01-27T20:06:22.668Z,12.13
2023-01-27T20:08:55.201Z,12.00
2023-01-27T20:11:38.517Z,13.80
2023-01-27T20:14:12.671Z,16.30
2023-01-27T20:16:39.889Z,15.50
2023-01-27T20:19:06.969Z,15.23
2023-01-27T20:21:34.490Z,23.87
2023-01-27T20:24:02.302Z,19.30
2023-01-27T20:26:32.615Z,15.90
2023-01-27T20:28:59.695Z,14.37
2023-01-27T20:31:26.703Z,13.57
2023-01-27T20:33:53.484Z,14.10
2023-01-27T20:36:22.859Z,13.80
2023-01-27T20:38:50.357Z,12.63
2023-01-27T20:41:22.955Z,16.23
2023-01-27T20:43:54.719Z,14.03
2023-01-27T20:46:21.494Z,14.33
2023-01-27T20:48:48.263Z,12.23
2023-01-27T20:51:16.254Z,13.40
2023-01-27T20:53:45.838Z,12.67
2023-01-27T20:56:18.361Z,14.37
2023-01-27T20:58:45.466Z,14.70
2023-01-27T21:01:20.874Z,14.83
2023-01-27T21:03:48.428Z,15.27
2023-01-27T21:06:16.097Z,14.70
2023-01-27T21:08:43.632Z,15.93
2023-01-27T21:11:12.763Z,15.07
2023-01-27T21:13:39.584Z,14.60
2023-01-27T21:16:06.619Z,13.83
2023-01-27T21:18:33.860Z,14.63
2023-01-27T21:21:02.630Z,14.70
2023-01-27T21:23:31.401Z,14.53
2023-01-27T21:26:09.110Z,13.77
2023-01-27T21:28:35.905Z,13.83
2023-01-27T21:31:16.205Z,13.73
2023-01-27T21:33:45.715Z,14.87
2023-01-27T21:36:13.022Z,15.00
2023-01-27T21:38:40.157Z,14.43
2023-01-27T21:41:10.450Z,13.83
2023-01-27T21:43:56.311Z,14.33
2023-01-27T21:46:23.315Z,15.33
2023-01-27T21:48:50.093Z,13.00
2023-01-27T21:51:16.889Z,13.37
2023-01-27T21:53:43.635Z,14.80
2023-01-27T21:56:11.288Z,15.67
2023-01-27T21:58:38.087Z,14.07
2023-01-27T22:01:10.415Z,13.57
2023-01-27T22:03:38.328Z,15.73
2023-01-27T22:06:09.686Z,14.77
2023-01-27T22:08:36.987Z,13.07
2023-01-27T22:11:12.292Z,13.00
2023-01-27T22:13:39.365Z,12.57
2023-01-27T22:16:06.772Z,12.83
2023-01-27T22:18:33.659Z,12.97
2023-01-27T22:21:03.709Z,13.27
2023-01-27T22:23:30.554Z,14.33
2023-01-27T22:25:57.335Z,14.03
2023-01-27T22:28:25.367Z,14.03
2023-01-27T22:30:52.568Z,14.43
2023-01-27T22:33:19.585Z,13.20
2023-01-27T22:35:46.333Z,13.93
2023-01-27T22:38:13.296Z,13.27
2023-01-27T22:40:40.019Z,13.60
2023-01-27T22:43:10.205Z,12.53
2023-01-27T22:45:40.690Z,12.47
2023-01-27T22:48:08.671Z,12.30
2023-01-27T22:50:36.066Z,12.93
2023-01-27T22:53:04.073Z,11.93
2023-01-27T22:55:30.875Z,13.20
2023-01-27T22:57:57.628Z,13.10
2023-01-27T23:00:24.513Z,12.47
2023-01-27T23:02:51.202Z,12.67
2023-01-27T23:05:18.006Z,12.47
2023-01-27T23:07:47.225Z,13.20
2023-01-27T23:10:14.083Z,13.27
2023-01-27T23:12:40.912Z,12.87
2023-01-27T23:15:08.399Z,14.13
2023-01-27T23:17:35.457Z,13.20
2023-01-27T23:20:02.549Z,12.57
2023-01-27T23:22:29.287Z,12.90
2023-01-27T23:24:56.007Z,12.77
2023-01-27T23:27:22.794Z,12.07
2023-01-27T23:29:49.529Z,12.93
2023-01-27T23:32:16.273Z,13.13
2023-01-27T23:34:42.983Z,12.60
2023-01-27T23:37:09.741Z,12.63
2023-01-27T23:39:36.648Z,12.07
2023-01-27T23:42:03.485Z,12.33
2023-01-27T23:44:30.288Z,11.30
2023-01-27T23:46:57.047Z,11.30
2023-01-27T23:49:23.809Z,11.67
2023-01-27T23:51:50.552Z,11.90
2023-01-27T23:54:17.347Z,12.13
2023-01-27T23:56:44.098Z,11.63
2023-01-27T23:59:12.296Z,11.37
